WEATHER DATA

YESTERDAY
Time Temp. Dewp. Hum. Bar.
00:06 -7.1 -8.4 89 981.7
00:16 -7 -8.3 89 981.9
00:26 -7 -8.3 89 982
00:36 -7 -8.5 88 982.3
00:46 -6.8 -8.1 89 982.2
00:56 -6.8 -8.1 89 982.1
01:07 -6.7 -8.2 88 982.1
01:17 -6.7 -8.2 88 982
01:26 -6.7 -8.2 88 982
01:37 -6.7 -8.2 88 982
01:47 -6.7 -8.2 88 982
01:57 -6.6 -8.1 88 982
02:07 -6.6 -8.1 88 982.2
02:17 -6.6 -8.1 88 982.3
02:27 -6.6 -8.1 88 982.3
02:37 -6.6 -8.1 88 982.5
02:47 -6.6 -8.2 87 982.5
02:58 -6.7 -8.3 87 982.6
03:07 -6.7 -8.3 87 982.8
03:28 -6.8 -8.4 87 982.7
03:38 -6.8 -8.5 86 982.8
03:48 -6.9 -8.6 86 982.8
03:58 -7 -8.7 86 982.8
04:08 -7 -8.7 86 982.7
04:18 -7 -8.7 86 982.7
04:28 -7.1 -8.8 86 982.8
04:39 -7.2 -8.9 86 982.9
04:48 -7.2 -8.9 86 983
04:58 -7.3 -9 86 983.3
05:08 -7.4 -9.1 86 983.2
05:23 -7.6 -9.5 85 983.2
05:33 -7.7 -9.5 85 983.4
05:43 -7.8 -9.6 85 983.4
05:53 -8 -9.8 85 983.3
06:03 -8.2 -10 85 983.2
06:13 -8.3 -10.1 85 983.2
06:24 -8.5 -10.3 85 983.3
06:34 -8.7 -10.5 85 983.4
06:43 -8.9 -10.7 85 983.6
06:54 -9.1 -10.9 85 983.5
07:04 -9.1 -10.9 85 983.6
07:14 -9.1 -10.8 86 983.6
07:24 -9.1 -10.8 86 983.5
07:34 -9.2 -10.9 86 983.4
07:44 -9.2 -10.9 86 983.6
07:54 -9.3 -11 86 983.6
08:07 -9.5 -11.2 86 983.7
08:17 -9.5 -11.2 86 983.7
08:28 -9.6 -11.3 86 983.7
08:37 -9.6 -11.3 86 983.8
08:47 -9.6 -11.3 86 983.9
08:57 -9.6 -11.4 85 983.7
09:08 -9.8 -11.6 85 983.8
09:18 -9.9 -11.7 85 983.9
09:27 -10.1 -11.9 85 983.9
09:37 -10.3 -12.2 84 983.9
09:48 -10.4 -12.3 84 983.9
09:58 -10.6 -12.5 84 983.8
10:08 -10.6 -12.4 85 983.8
10:18 -10.7 -12.5 85 983.7
10:28 -10.8 -12.7 84 983.7
10:38 -10.8 -12.7 84 983.8
10:49 -10.7 -12.5 85 983.9
10:59 -10.6 -12.4 85 984
11:08 -10.4 -12.2 85 983.9
11:18 -10.3 -12.2 84 983.9
11:29 -10.3 -12.2 84 983.8
11:39 -10.3 -12.2 84 983.8
11:49 -10.4 -12.3 84 983.8
11:59 -10.5 -12.4 84 983.7
12:09 -10.4 -12.3 84 983.6
12:19 -10.4 -12.3 84 983.7
12:29 -10.4 -12.3 84 983.7
12:40 -10.4 -12.5 83 983.8
12:49 -10.5 -12.6 83 983.9
12:59 -10.7 -12.8 83 983.9
13:10 -10.9 -13 83 983.9
13:20 -11 -13.1 83 983.8
13:30 -11.1 -13 84 983.8
13:39 -11.2 -13.1 84 983.7
13:50 -11.3 -13.1 85 983.6
14:00 -11.5 -13.3 85 983.6
14:10 -11.6 -13.4 85 983.5
14:20 -11.8 -13.6 85 983.5
14:30 -11.9 -13.7 85 983.5
14:40 -12 -13.8 85 983.7
14:50 -12.3 -14.2 84 983.9
15:01 -12.6 -14.5 84 983.9
15:11 -12.8 -14.7 84 983.9
15:20 -13.1 -15 84 984
15:31 -13.3 -15.2 84 983.8
15:41 -13.5 -15.4 84 983.8
15:51 -13.7 -15.6 84 983.8
16:01 -13.8 -15.7 84 983.7
16:11 -14 -15.9 84 983.6
16:21 -14.1 -16 84 983.7
16:31 -14.3 -16.2 84 983.8
16:41 -14.6 -16.5 84 983.9
16:52 -15 -17 83 984
17:01 -15.3 -17.3 83 984.1
17:11 -15.5 -17.5 83 984.1
17:22 -15.8 -17.8 83 984.1
17:32 -16.1 -18.1 83 984.2
17:42 -16.3 -18.3 83 984.2
17:52 -16.5 -18.5 83 984.1
18:02 -16.7 -18.7 83 984
18:12 -17.1 -19.2 82 984
18:22 -17.4 -19.5 82 983.9
18:33 -17.7 -19.8 82 983.9
18:42 -17.9 -19.9 83 983.8
18:52 -18 -20 83 983.8
19:02 -18.1 -20.1 83 983.9
19:13 -18.3 -20.3 83 983.9
19:22 -18.5 -20.4 83 984
19:32 -18.6 -20.5 83 984
19:43 -18.8 -20.7 83 984.1
19:53 -18.8 -20.7 83 984
20:03 -18.9 -20.8 83 984
20:13 -19 -20.9 83 984.2
20:23 -19.2 -21.1 83 984.3
20:33 -19.3 -21.2 83 984.4
20:43 -19.4 -21.3 83 984.3
20:54 -19.5 -21.4 83 984.5
21:03 -19.8 -21.9 82 984.7
21:13 -19.9 -22 82 984.8
21:23 -19.9 -21.8 83 984.8
21:34 -20 -21.9 83 984.8
21:44 -20.1 -22 83 984.9
21:53 -20.1 -22 83 985
22:04 -20 -21.9 83 985.1
22:14 -19.9 -21.7 84 985.1
22:24 -19.5 -21.2 85 985
22:34 -19.1 -20.7 86 985
22:44 -18.8 -20.4 86 985
22:54 -18.5 -20.1 86 985
23:04 -18.2 -19.7 87 985
23:15 -17.9 -19.4 87 985.1
23:25 -17.8 -19.4 86 985.2
23:34 -17.6 -19.2 86 985.3
23:44 -17.4 -19 86 985.3
23:55 -17.2 -18.8 86 985.2

DAY STATISTIC

2023-01-31
TEMPERATURE
AVERAGE
-12.1
HIGH
-6.6
01:57
LOW
-20.1
21:44
PRESSURE
AVERAGE
983.7
HIGH
985.3
23:34
LOW
981.7
00:06
DEWPOINT
AVERAGE
-13.9
HIGH
-8.1
00:46
LOW
-22.0
21:13
HUMIDITY
AVERAGE
85
HIGH
89
00:06
LOW
82
18:12
TEMPERATURE (°C)
LOW
-20.1
HIGH
-6.6
AVERAGE
-12.1
PRESSURE (hpa)
LOW
981.7
HIGH
985.3
AVERAGE
983.7
DEVICE